sensor_id;sensor_type;location;lat;lon;timestamp;temperature;humidity
69595;DHT22;56800;52.142;5.364;2024-02-16T00:02:01;11.80;84.10
69595;DHT22;56800;52.142;5.364;2024-02-16T00:04:28;11.80;84.10
69595;DHT22;56800;52.142;5.364;2024-02-16T00:06:54;11.70;84.20
69595;DHT22;56800;52.142;5.364;2024-02-16T00:09:22;11.70;84.20
69595;DHT22;56800;52.142;5.364;2024-02-16T00:11:49;11.70;84.20
69595;DHT22;56800;52.142;5.364;2024-02-16T00:14:17;11.70;84.30
69595;DHT22;56800;52.142;5.364;2024-02-16T00:16:44;11.60;84.20
69595;DHT22;56800;52.142;5.364;2024-02-16T00:19:11;11.60;84.30
69595;DHT22;56800;52.142;5.364;2024-02-16T00:21:38;11.50;84.30
69595;DHT22;56800;52.142;5.364;2024-02-16T00:24:08;11.60;84.40
69595;DHT22;56800;52.142;5.364;2024-02-16T00:26:36;11.60;84.50
69595;DHT22;56800;52.142;5.364;2024-02-16T00:29:03;11.50;84.40
69595;DHT22;56800;52.142;5.364;2024-02-16T00:31:31;11.50;84.90
69595;DHT22;56800;52.142;5.364;2024-02-16T00:33:58;11.50;84.50
69595;DHT22;56800;52.142;5.364;2024-02-16T00:36:26;11.50;84.50
69595;DHT22;56800;52.142;5.364;2024-02-16T00:38:54;11.50;84.60
69595;DHT22;56800;52.142;5.364;2024-02-16T00:41:22;11.50;84.70
69595;DHT22;56800;52.142;5.364;2024-02-16T00:43:50;11.50;84.60
69595;DHT22;56800;52.142;5.364;2024-02-16T00:46:17;11.50;84.70
69595;DHT22;56800;52.142;5.364;2024-02-16T00:48:44;11.40;84.70
69595;DHT22;56800;52.142;5.364;2024-02-16T00:51:13;11.40;84.80
69595;DHT22;56800;52.142;5.364;2024-02-16T00:53:40;11.30;84.80
69595;DHT22;56800;52.142;5.364;2024-02-16T00:56:07;11.30;84.80
69595;DHT22;56800;52.142;5.364;2024-02-16T00:58:34;11.40;85.00
69595;DHT22;56800;52.142;5.364;2024-02-16T01:01:00;11.30;84.90
69595;DHT22;56800;52.142;5.364;2024-02-16T01:03:27;11.30;85.10
69595;DHT22;56800;52.142;5.364;2024-02-16T01:05:54;11.30;85.10
69595;DHT22;56800;52.142;5.364;2024-02-16T01:08:21;11.30;85.00
69595;DHT22;56800;52.142;5.364;2024-02-16T01:10:49;11.20;85.10
69595;DHT22;56800;52.142;5.364;2024-02-16T01:13:16;11.30;85.10
69595;DHT22;56800;52.142;5.364;2024-02-16T01:15:44;11.20;84.90
69595;DHT22;56800;52.142;5.364;2024-02-16T01:18:10;11.20;85.00
69595;DHT22;56800;52.142;5.364;2024-02-16T01:20:38;11.20;85.00
69595;DHT22;56800;52.142;5.364;2024-02-16T01:23:04;11.10;85.00
69595;DHT22;56800;52.142;5.364;2024-02-16T01:25:31;11.10;85.10
69595;DHT22;56800;52.142;5.364;2024-02-16T01:27:59;11.10;85.30
69595;DHT22;56800;52.142;5.364;2024-02-16T01:30:25;11.10;85.40
69595;DHT22;56800;52.142;5.364;2024-02-16T01:32:52;11.10;85.40
69595;DHT22;56800;52.142;5.364;2024-02-16T01:35:19;11.20;85.40
69595;DHT22;56800;52.142;5.364;2024-02-16T01:37:47;11.10;85.30
69595;DHT22;56800;52.142;5.364;2024-02-16T01:40:14;11.10;85.30
69595;DHT22;56800;52.142;5.364;2024-02-16T01:42:44;11.10;85.20
69595;DHT22;56800;52.142;5.364;2024-02-16T01:45:10;11.10;85.40
69595;DHT22;56800;52.142;5.364;2024-02-16T01:47:40;11.10;85.50
69595;DHT22;56800;52.142;5.364;2024-02-16T01:50:08;11.00;85.50
69595;DHT22;56800;52.142;5.364;2024-02-16T01:52:36;11.00;85.50
69595;DHT22;56800;52.142;5.364;2024-02-16T01:55:04;11.00;85.50
69595;DHT22;56800;52.142;5.364;2024-02-16T01:57:31;11.00;85.70
69595;DHT22;56800;52.142;5.364;2024-02-16T01:59:58;11.00;85.80
69595;DHT22;56800;52.142;5.364;2024-02-16T02:02:27;11.00;85.70
69595;DHT22;56800;52.142;5.364;2024-02-16T02:04:54;11.00;85.70
69595;DHT22;56800;52.142;5.364;2024-02-16T02:07:25;11.00;85.60
69595;DHT22;56800;52.142;5.364;2024-02-16T02:09:54;11.00;85.70
69595;DHT22;56800;52.142;5.364;2024-02-16T02:12:21;11.00;85.80
69595;DHT22;56800;52.142;5.364;2024-02-16T02:14:49;11.00;85.80
69595;DHT22;56800;52.142;5.364;2024-02-16T02:17:17;11.00;85.70
69595;DHT22;56800;52.142;5.364;2024-02-16T02:19:48;11.00;85.90
69595;DHT22;56800;52.142;5.364;2024-02-16T02:22:19;11.00;86.00
69595;DHT22;56800;52.142;5.364;2024-02-16T02:24:47;11.00;86.00
69595;DHT22;56800;52.142;5.364;2024-02-16T02:27:15;11.00;86.10
69595;DHT22;56800;52.142;5.364;2024-02-16T02:29:43;11.10;86.10
69595;DHT22;56800;52.142;5.364;2024-02-16T02:32:11;11.10;86.10
69595;DHT22;56800;52.142;5.364;2024-02-16T02:34:39;11.10;86.10
69595;DHT22;56800;52.142;5.364;2024-02-16T02:37:06;11.10;86.00
69595;DHT22;56800;52.142;5.364;2024-02-16T02:39:33;11.10;86.10
69595;DHT22;56800;52.142;5.364;2024-02-16T02:42:00;11.10;86.10
69595;DHT22;56800;52.142;5.364;2024-02-16T02:44:27;11.10;86.30
69595;DHT22;56800;52.142;5.364;2024-02-16T02:46:54;11.00;86.20
69595;DHT22;56800;52.142;5.364;2024-02-16T02:49:21;11.10;86.20
69595;DHT22;56800;52.142;5.364;2024-02-16T02:51:47;11.00;87.00
69595;DHT22;56800;52.142;5.364;2024-02-16T02:54:14;11.10;86.30
69595;DHT22;56800;52.142;5.364;2024-02-16T02:56:41;11.10;86.40
69595;DHT22;56800;52.142;5.364;2024-02-16T02:59:08;11.10;86.40
69595;DHT22;56800;52.142;5.364;2024-02-16T03:01:36;11.10;86.40
69595;DHT22;56800;52.142;5.364;2024-02-16T03:04:04;11.10;86.30
69595;DHT22;56800;52.142;5.364;2024-02-16T03:06:31;11.20;86.20
69595;DHT22;56800;52.142;5.364;2024-02-16T03:08:57;11.20;86.00
69595;DHT22;56800;52.142;5.364;2024-02-16T03:11:24;11.10;85.80
69595;DHT22;56800;52.142;5.364;2024-02-16T03:13:52;11.10;85.80
69595;DHT22;56800;52.142;5.364;2024-02-16T03:16:19;11.10;85.80
69595;DHT22;56800;52.142;5.364;2024-02-16T03:18:46;11.10;85.70
69595;DHT22;56800;52.142;5.364;2024-02-16T03:21:14;11.10;85.70
69595;DHT22;56800;52.142;5.364;2024-02-16T03:23:43;11.20;85.70
69595;DHT22;56800;52.142;5.364;2024-02-16T03:26:20;11.10;85.50
69595;DHT22;56800;52.142;5.364;2024-02-16T03:28:47;11.10;85.50
69595;DHT22;56800;52.142;5.364;2024-02-16T03:31:23;11.10;85.60
69595;DHT22;56800;52.142;5.364;2024-02-16T03:33:51;11.00;85.50
69595;DHT22;56800;52.142;5.364;2024-02-16T03:36:20;11.00;85.50
69595;DHT22;56800;52.142;5.364;2024-02-16T03:38:48;11.00;85.60
69595;DHT22;56800;52.142;5.364;2024-02-16T03:41:20;11.00;85.60
69595;DHT22;56800;52.142;5.364;2024-02-16T03:43:47;10.90;85.60
69595;DHT22;56800;52.142;5.364;2024-02-16T03:46:14;10.90;85.60
69595;DHT22;56800;52.142;5.364;2024-02-16T03:48:42;10.90;85.60
69595;DHT22;56800;52.142;5.364;2024-02-16T03:51:09;10.90;85.70
69595;DHT22;56800;52.142;5.364;2024-02-16T03:53:36;10.90;85.70
69595;DHT22;56800;52.142;5.364;2024-02-16T03:56:03;10.80;85.70
69595;DHT22;56800;52.142;5.364;2024-02-16T03:58:31;10.90;86.00
69595;DHT22;56800;52.142;5.364;2024-02-16T04:00:58;10.90;85.80
69595;DHT22;56800;52.142;5.364;2024-02-16T04:03:25;10.80;85.60
69595;DHT22;56800;52.142;5.364;2024-02-16T04:05:51;10.80;85.70
69595;DHT22;56800;52.142;5.364;2024-02-16T04:08:19;10.80;85.70
69595;DHT22;56800;52.142;5.364;2024-02-16T04:10:46;10.80;85.80
69595;DHT22;56800;52.142;5.364;2024-02-16T04:13:13;10.80;85.80
69595;DHT22;56800;52.142;5.364;2024-02-16T04:15:40;10.80;85.80
69595;DHT22;56800;52.142;5.364;2024-02-16T04:18:06;10.80;85.80
69595;DHT22;56800;52.142;5.364;2024-02-16T04:20:33;10.80;85.80
69595;DHT22;56800;52.142;5.364;2024-02-16T04:23:01;10.90;85.80
69595;DHT22;56800;52.142;5.364;2024-02-16T04:25:27;10.80;85.60
69595;DHT22;56800;52.142;5.364;2024-02-16T04:27:54;10.80;85.70
69595;DHT22;56800;52.142;5.364;2024-02-16T04:30:21;10.80;86.20
69595;DHT22;56800;52.142;5.364;2024-02-16T04:32:48;10.80;85.60
69595;DHT22;56800;52.142;5.364;2024-02-16T04:35:15;10.80;85.50
69595;DHT22;56800;52.142;5.364;2024-02-16T04:37:43;10.70;85.60
69595;DHT22;56800;52.142;5.364;2024-02-16T04:40:10;10.70;85.60
69595;DHT22;56800;52.142;5.364;2024-02-16T04:42:39;10.70;85.80
69595;DHT22;56800;52.142;5.364;2024-02-16T04:45:10;10.70;85.90
69595;DHT22;56800;52.142;5.364;2024-02-16T04:47:37;10.60;86.00
69595;DHT22;56800;52.142;5.364;2024-02-16T04:50:05;10.60;85.90
69595;DHT22;56800;52.142;5.364;2024-02-16T04:52:31;10.60;85.90
69595;DHT22;56800;52.142;5.364;2024-02-16T04:54:58;10.60;85.90
69595;DHT22;56800;52.142;5.364;2024-02-16T04:57:25;10.60;86.10
69595;DHT22;56800;52.142;5.364;2024-02-16T04:59:52;10.60;86.00
69595;DHT22;56800;52.142;5.364;2024-02-16T05:02:18;10.60;86.10
69595;DHT22;56800;52.142;5.364;2024-02-16T05:04:45;10.60;86.10
69595;DHT22;56800;52.142;5.364;2024-02-16T05:07:12;10.60;86.20
69595;DHT22;56800;52.142;5.364;2024-02-16T05:09:39;10.70;86.10
69595;DHT22;56800;52.142;5.364;2024-02-16T05:12:06;10.60;86.00
69595;DHT22;56800;52.142;5.364;2024-02-16T05:14:35;10.60;85.90
69595;DHT22;56800;52.142;5.364;2024-02-16T05:17:02;10.60;86.00
69595;DHT22;56800;52.142;5.364;2024-02-16T05:19:33;10.60;86.00
69595;DHT22;56800;52.142;5.364;2024-02-16T05:22:01;10.60;85.90
69595;DHT22;56800;52.142;5.364;2024-02-16T05:24:27;10.60;86.00
69595;DHT22;56800;52.142;5.364;2024-02-16T05:26:54;10.60;85.90
69595;DHT22;56800;52.142;5.364;2024-02-16T05:29:22;10.60;86.00
69595;DHT22;56800;52.142;5.364;2024-02-16T05:31:51;10.60;86.00
69595;DHT22;56800;52.142;5.364;2024-02-16T05:34:18;10.60;86.00
69595;DHT22;56800;52.142;5.364;2024-02-16T05:36:45;10.60;86.10
69595;DHT22;56800;52.142;5.364;2024-02-16T05:39:11;10.60;86.10
69595;DHT22;56800;52.142;5.364;2024-02-16T05:41:53;10.60;86.20
69595;DHT22;56800;52.142;5.364;2024-02-16T05:44:20;10.60;86.20
69595;DHT22;56800;52.142;5.364;2024-02-16T05:46:47;10.60;86.10
69595;DHT22;56800;52.142;5.364;2024-02-16T05:49:15;10.60;86.10
69595;DHT22;56800;52.142;5.364;2024-02-16T05:51:43;10.60;86.20
69595;DHT22;56800;52.142;5.364;2024-02-16T05:54:28;10.60;86.20
69595;DHT22;56800;52.142;5.364;2024-02-16T05:56:55;10.70;86.30
69595;DHT22;56800;52.142;5.364;2024-02-16T05:59:22;10.70;86.30
69595;DHT22;56800;52.142;5.364;2024-02-16T06:01:48;10.70;86.30
69595;DHT22;56800;52.142;5.364;2024-02-16T06:04:16;10.70;86.30
69595;DHT22;56800;52.142;5.364;2024-02-16T06:06:43;10.70;86.30
69595;DHT22;56800;52.142;5.364;2024-02-16T06:09:10;10.80;86.40
69595;DHT22;56800;52.142;5.364;2024-02-16T06:11:37;10.80;87.20
69595;DHT22;56800;52.142;5.364;2024-02-16T06:14:05;10.90;86.40
69595;DHT22;56800;52.142;5.364;2024-02-16T06:16:32;10.90;86.40
69595;DHT22;56800;52.142;5.364;2024-02-16T06:18:58;11.00;86.40
69595;DHT22;56800;52.142;5.364;2024-02-16T06:21:25;11.00;86.30
69595;DHT22;56800;52.142;5.364;2024-02-16T06:23:52;11.10;86.30
69595;DHT22;56800;52.142;5.364;2024-02-16T06:26:19;11.10;86.20
69595;DHT22;56800;52.142;5.364;2024-02-16T06:28:47;11.20;86.20
69595;DHT22;56800;52.142;5.364;2024-02-16T06:31:14;11.30;86.10
69595;DHT22;56800;52.142;5.364;2024-02-16T06:33:41;11.30;85.90
69595;DHT22;56800;52.142;5.364;2024-02-16T06:36:08;11.30;85.80
69595;DHT22;56800;52.142;5.364;2024-02-16T06:38:37;11.40;85.70
69595;DHT22;56800;52.142;5.364;2024-02-16T06:41:04;11.40;85.60
69595;DHT22;56800;52.142;5.364;2024-02-16T06:43:31;11.50;85.50
69595;DHT22;56800;52.142;5.364;2024-02-16T06:45:58;11.50;85.40
69595;DHT22;56800;52.142;5.364;2024-02-16T06:48:24;11.50;85.30
69595;DHT22;56800;52.142;5.364;2024-02-16T06:50:51;11.60;85.30
69595;DHT22;56800;52.142;5.364;2024-02-16T06:53:18;11.60;85.20
69595;DHT22;56800;52.142;5.364;2024-02-16T06:55:45;11.60;85.10
69595;DHT22;56800;52.142;5.364;2024-02-16T06:58:12;11.60;85.10
69595;DHT22;56800;52.142;5.364;2024-02-16T07:00:38;11.60;85.00
69595;DHT22;56800;52.142;5.364;2024-02-16T07:03:08;11.70;85.70
69595;DHT22;56800;52.142;5.364;2024-02-16T07:05:35;11.70;84.90
69595;DHT22;56800;52.142;5.364;2024-02-16T07:08:03;11.70;84.90
69595;DHT22;56800;52.142;5.364;2024-02-16T07:10:33;11.70;84.80
69595;DHT22;56800;52.142;5.364;2024-02-16T07:13:00;11.70;84.80
69595;DHT22;56800;52.142;5.364;2024-02-16T07:15:27;11.70;84.70
69595;DHT22;56800;52.142;5.364;2024-02-16T07:17:54;11.70;84.70
69595;DHT22;56800;52.142;5.364;2024-02-16T07:20:21;11.70;84.60
69595;DHT22;56800;52.142;5.364;2024-02-16T07:22:48;11.70;84.60
69595;DHT22;56800;52.142;5.364;2024-02-16T07:25:17;11.70;84.60
69595;DHT22;56800;52.142;5.364;2024-02-16T07:27:43;11.80;84.60
69595;DHT22;56800;52.142;5.364;2024-02-16T07:30:11;11.80;84.70
69595;DHT22;56800;52.142;5.364;2024-02-16T07:32:42;11.80;84.70
69595;DHT22;56800;52.142;5.364;2024-02-16T07:35:10;11.90;84.70
69595;DHT22;56800;52.142;5.364;2024-02-16T07:37:37;11.80;84.60
69595;DHT22;56800;52.142;5.364;2024-02-16T07:40:04;11.90;84.50
69595;DHT22;56800;52.142;5.364;2024-02-16T07:42:32;11.90;84.50
69595;DHT22;56800;52.142;5.364;2024-02-16T07:44:59;11.90;84.50
69595;DHT22;56800;52.142;5.364;2024-02-16T07:47:26;12.00;84.60
69595;DHT22;56800;52.142;5.364;2024-02-16T07:49:54;12.00;84.60
69595;DHT22;56800;52.142;5.364;2024-02-16T07:52:21;12.00;84.60
69595;DHT22;56800;52.142;5.364;2024-02-16T07:54:48;12.00;84.60
69595;DHT22;56800;52.142;5.364;2024-02-16T07:57:14;12.00;84.60
69595;DHT22;56800;52.142;5.364;2024-02-16T07:59:41;12.10;84.60
69595;DHT22;56800;52.142;5.364;2024-02-16T08:02:08;12.10;84.60
69595;DHT22;56800;52.142;5.364;2024-02-16T08:04:36;12.10;84.60
69595;DHT22;56800;52.142;5.364;2024-02-16T08:07:02;12.10;85.40
69595;DHT22;56800;52.142;5.364;2024-02-16T08:09:29;12.20;84.60
69595;DHT22;56800;52.142;5.364;2024-02-16T08:11:56;12.30;84.70
69595;DHT22;56800;52.142;5.364;2024-02-16T08:14:23;12.30;84.60
69595;DHT22;56800;52.142;5.364;2024-02-16T08:16:50;12.30;84.60
69595;DHT22;56800;52.142;5.364;2024-02-16T08:19:33;12.30;84.70
69595;DHT22;56800;52.142;5.364;2024-02-16T08:22:04;12.40;84.60
69595;DHT22;56800;52.142;5.364;2024-02-16T08:24:37;12.40;84.70
69595;DHT22;56800;52.142;5.364;2024-02-16T08:27:04;12.50;84.70
69595;DHT22;56800;52.142;5.364;2024-02-16T08:29:31;12.50;84.60
69595;DHT22;56800;52.142;5.364;2024-02-16T08:31:57;12.60;84.40
69595;DHT22;56800;52.142;5.364;2024-02-16T08:34:24;12.60;84.40
69595;DHT22;56800;52.142;5.364;2024-02-16T08:36:52;12.70;84.40
69595;DHT22;56800;52.142;5.364;2024-02-16T08:39:19;12.80;84.40
69595;DHT22;56800;52.142;5.364;2024-02-16T08:41:49;12.80;84.30
69595;DHT22;56800;52.142;5.364;2024-02-16T08:44:16;12.90;84.40
69595;DHT22;56800;52.142;5.364;2024-02-16T08:46:42;13.00;84.20
69595;DHT22;56800;52.142;5.364;2024-02-16T08:49:09;13.10;84.10
69595;DHT22;56800;52.142;5.364;2024-02-16T08:51:36;13.10;84.00
69595;DHT22;56800;52.142;5.364;2024-02-16T08:54:03;13.20;83.90
69595;DHT22;56800;52.142;5.364;2024-02-16T08:56:35;13.20;83.80
69595;DHT22;56800;52.142;5.364;2024-02-16T08:59:02;13.30;84.10
69595;DHT22;56800;52.142;5.364;2024-02-16T09:01:33;13.40;84.00
69595;DHT22;56800;52.142;5.364;2024-02-16T09:04:00;13.60;83.70
69595;DHT22;56800;52.142;5.364;2024-02-16T09:06:29;13.60;83.40
69595;DHT22;56800;52.142;5.364;2024-02-16T09:08:56;13.70;83.50
69595;DHT22;56800;52.142;5.364;2024-02-16T09:11:23;13.70;83.00
69595;DHT22;56800;52.142;5.364;2024-02-16T09:13:51;13.70;82.80
69595;DHT22;56800;52.142;5.364;2024-02-16T09:16:18;13.60;82.70
69595;DHT22;56800;52.142;5.364;2024-02-16T09:18:48;13.60;82.90
69595;DHT22;56800;52.142;5.364;2024-02-16T09:21:17;13.50;83.10
69595;DHT22;56800;52.142;5.364;2024-02-16T09:23:45;13.40;83.30
69595;DHT22;56800;52.142;5.364;2024-02-16T09:26:12;13.40;83.50
69595;DHT22;56800;52.142;5.364;2024-02-16T09:28:40;13.30;83.70
69595;DHT22;56800;52.142;5.364;2024-02-16T09:31:13;13.30;84.20
69595;DHT22;56800;52.142;5.364;2024-02-16T09:33:42;13.20;84.40
69595;DHT22;56800;52.142;5.364;2024-02-16T09:36:10;13.20;84.70
69595;DHT22;56800;52.142;5.364;2024-02-16T09:38:37;13.20;85.00
69595;DHT22;56800;52.142;5.364;2024-02-16T09:41:04;13.20;85.20
69595;DHT22;56800;52.142;5.364;2024-02-16T09:43:31;13.20;85.40
69595;DHT22;56800;52.142;5.364;2024-02-16T09:45:59;13.30;85.80
69595;DHT22;56800;52.142;5.364;2024-02-16T09:48:29;13.30;86.00
69595;DHT22;56800;52.142;5.364;2024-02-16T09:50:58;13.40;86.20
69595;DHT22;56800;52.142;5.364;2024-02-16T09:53:28;13.40;86.20
69595;DHT22;56800;52.142;5.364;2024-02-16T09:55:55;13.50;86.30
69595;DHT22;56800;52.142;5.364;2024-02-16T09:58:23;13.50;86.40
69595;DHT22;56800;52.142;5.364;2024-02-16T10:00:54;13.50;86.20
69595;DHT22;56800;52.142;5.364;2024-02-16T10:03:27;13.50;86.20
69595;DHT22;56800;52.142;5.364;2024-02-16T10:06:05;13.50;86.20
69595;DHT22;56800;52.142;5.364;2024-02-16T10:08:34;13.50;86.20
69595;DHT22;56800;52.142;5.364;2024-02-16T10:11:05;13.40;86.10
69595;DHT22;56800;52.142;5.364;2024-02-16T10:13:32;13.40;86.10
69595;DHT22;56800;52.142;5.364;2024-02-16T10:16:06;13.40;86.10
69595;DHT22;56800;52.142;5.364;2024-02-16T10:18:38;13.40;86.30
69595;DHT22;56800;52.142;5.364;2024-02-16T10:21:06;13.30;86.20
69595;DHT22;56800;52.142;5.364;2024-02-16T10:23:34;13.30;86.20
69595;DHT22;56800;52.142;5.364;2024-02-16T10:26:09;13.40;86.40
69595;DHT22;56800;52.142;5.364;2024-02-16T10:28:36;13.30;86.40
69595;DHT22;56800;52.142;5.364;2024-02-16T10:31:04;13.30;86.50
69595;DHT22;56800;52.142;5.364;2024-02-16T10:33:39;13.30;86.50
69595;DHT22;56800;52.142;5.364;2024-02-16T10:36:08;13.30;86.60
69595;DHT22;56800;52.142;5.364;2024-02-16T10:38:36;13.30;87.50
69595;DHT22;56800;52.142;5.364;2024-02-16T10:41:04;13.20;86.90
69595;DHT22;56800;52.142;5.364;2024-02-16T10:43:32;13.20;87.00
69595;DHT22;56800;52.142;5.364;2024-02-16T10:46:00;13.30;87.10
69595;DHT22;56800;52.142;5.364;2024-02-16T10:48:27;13.20;87.10
69595;DHT22;56800;52.142;5.364;2024-02-16T10:50:54;13.20;87.10
69595;DHT22;56800;52.142;5.364;2024-02-16T10:53:28;13.20;87.20
69595;DHT22;56800;52.142;5.364;2024-02-16T10:56:06;13.10;87.20
69595;DHT22;56800;52.142;5.364;2024-02-16T10:58:55;13.10;87.30
69595;DHT22;56800;52.142;5.364;2024-02-16T11:01:22;13.10;87.60
69595;DHT22;56800;52.142;5.364;2024-02-16T11:03:49;13.10;87.70
69595;DHT22;56800;52.142;5.364;2024-02-16T11:06:27;13.10;87.80
69595;DHT22;56800;52.142;5.364;2024-02-16T11:08:53;13.10;87.70
69595;DHT22;56800;52.142;5.364;2024-02-16T11:11:24;13.10;87.70
69595;DHT22;56800;52.142;5.364;2024-02-16T11:13:54;13.00;87.80
69595;DHT22;56800;52.142;5.364;2024-02-16T11:16:23;13.00;88.00
69595;DHT22;56800;52.142;5.364;2024-02-16T11:18:52;13.00;88.10
69595;DHT22;56800;52.142;5.364;2024-02-16T11:21:19;13.00;88.10
69595;DHT22;56800;52.142;5.364;2024-02-16T11:23:46;13.00;88.20
69595;DHT22;56800;52.142;5.364;2024-02-16T11:26:13;13.00;88.30
69595;DHT22;56800;52.142;5.364;2024-02-16T11:28:41;13.10;88.60
69595;DHT22;56800;52.142;5.364;2024-02-16T11:31:08;13.10;88.50
69595;DHT22;56800;52.142;5.364;2024-02-16T11:33:35;13.00;88.40
69595;DHT22;56800;52.142;5.364;2024-02-16T11:36:05;13.00;88.50
69595;DHT22;56800;52.142;5.364;2024-02-16T11:38:35;13.10;88.60
69595;DHT22;56800;52.142;5.364;2024-02-16T11:41:04;13.00;88.60
69595;DHT22;56800;52.142;5.364;2024-02-16T11:43:32;13.10;88.70
69595;DHT22;56800;52.142;5.364;2024-02-16T11:46:12;13.10;88.70
69595;DHT22;56800;52.142;5.364;2024-02-16T11:48:41;13.10;88.80
69595;DHT22;56800;52.142;5.364;2024-02-16T11:51:28;13.10;88.80
69595;DHT22;56800;52.142;5.364;2024-02-16T11:53:56;13.10;88.70
69595;DHT22;56800;52.142;5.364;2024-02-16T11:56:24;13.10;88.80
69595;DHT22;56800;52.142;5.364;2024-02-16T11:58:52;13.10;88.70
69595;DHT22;56800;52.142;5.364;2024-02-16T12:01:19;13.00;89.40
69595;DHT22;56800;52.142;5.364;2024-02-16T12:03:48;13.10;88.70
69595;DHT22;56800;52.142;5.364;2024-02-16T12:06:21;13.00;88.70
69595;DHT22;56800;52.142;5.364;2024-02-16T12:08:50;13.00;88.70
69595;DHT22;56800;52.142;5.364;2024-02-16T12:11:17;13.00;88.70
69595;DHT22;56800;52.142;5.364;2024-02-16T12:13:45;13.00;89.50
69595;DHT22;56800;52.142;5.364;2024-02-16T12:16:12;13.00;88.90
69595;DHT22;56800;52.142;5.364;2024-02-16T12:18:39;13.00;88.90
69595;DHT22;56800;52.142;5.364;2024-02-16T12:21:06;13.00;88.80
69595;DHT22;56800;52.142;5.364;2024-02-16T12:23:34;12.90;88.80
69595;DHT22;56800;52.142;5.364;2024-02-16T12:26:01;12.90;88.80
69595;DHT22;56800;52.142;5.364;2024-02-16T12:28:29;12.90;88.90
69595;DHT22;56800;52.142;5.364;2024-02-16T12:30:59;12.90;89.00
69595;DHT22;56800;52.142;5.364;2024-02-16T12:33:30;13.00;89.10
69595;DHT22;56800;52.142;5.364;2024-02-16T12:35:57;13.00;89.00
69595;DHT22;56800;52.142;5.364;2024-02-16T12:38:24;13.00;88.80
69595;DHT22;56800;52.142;5.364;2024-02-16T12:40:51;12.90;88.80
69595;DHT22;56800;52.142;5.364;2024-02-16T12:43:19;12.90;88.80
69595;DHT22;56800;52.142;5.364;2024-02-16T12:45:53;12.90;89.00
69595;DHT22;56800;52.142;5.364;2024-02-16T12:48:20;12.90;89.10
69595;DHT22;56800;52.142;5.364;2024-02-16T12:50:50;12.90;89.10
69595;DHT22;56800;52.142;5.364;2024-02-16T12:53:19;12.90;89.10
69595;DHT22;56800;52.142;5.364;2024-02-16T12:55:47;12.90;89.30
69595;DHT22;56800;52.142;5.364;2024-02-16T12:58:14;12.90;90.00
69595;DHT22;56800;52.142;5.364;2024-02-16T13:00:41;12.90;89.10
69595;DHT22;56800;52.142;5.364;2024-02-16T13:03:08;12.90;89.30
69595;DHT22;56800;52.142;5.364;2024-02-16T13:05:35;12.90;89.40
69595;DHT22;56800;52.142;5.364;2024-02-16T13:08:02;13.00;89.40
69595;DHT22;56800;52.142;5.364;2024-02-16T13:10:29;13.00;89.40
69595;DHT22;56800;52.142;5.364;2024-02-16T13:13:00;13.00;89.40
69595;DHT22;56800;52.142;5.364;2024-02-16T13:15:27;13.10;89.50
69595;DHT22;56800;52.142;5.364;2024-02-16T13:17:55;13.10;89.30
69595;DHT22;56800;52.142;5.364;2024-02-16T13:20:22;13.10;89.10
69595;DHT22;56800;52.142;5.364;2024-02-16T13:22:49;13.10;88.90
69595;DHT22;56800;52.142;5.364;2024-02-16T13:25:17;13.10;88.80
69595;DHT22;56800;52.142;5.364;2024-02-16T13:27:44;13.10;89.00
69595;DHT22;56800;52.142;5.364;2024-02-16T13:30:12;13.10;89.10
69595;DHT22;56800;52.142;5.364;2024-02-16T13:32:39;13.10;89.00
69595;DHT22;56800;52.142;5.364;2024-02-16T13:35:07;13.10;89.10
69595;DHT22;56800;52.142;5.364;2024-02-16T13:37:34;13.10;89.00
69595;DHT22;56800;52.142;5.364;2024-02-16T13:40:01;13.00;88.90
69595;DHT22;56800;52.142;5.364;2024-02-16T13:42:33;13.00;89.00
69595;DHT22;56800;52.142;5.364;2024-02-16T13:45:00;13.00;88.80
69595;DHT22;56800;52.142;5.364;2024-02-16T13:47:28;13.00;88.60
69595;DHT22;56800;52.142;5.364;2024-02-16T13:49:54;13.00;88.60
69595;DHT22;56800;52.142;5.364;2024-02-16T13:52:24;13.00;88.60
69595;DHT22;56800;52.142;5.364;2024-02-16T13:54:51;13.00;88.60
69595;DHT22;56800;52.142;5.364;2024-02-16T13:57:19;13.00;88.60
69595;DHT22;56800;52.142;5.364;2024-02-16T13:59:46;12.90;88.60
69595;DHT22;56800;52.142;5.364;2024-02-16T14:02:13;13.00;88.80
69595;DHT22;56800;52.142;5.364;2024-02-16T14:04:40;12.90;88.70
69595;DHT22;56800;52.142;5.364;2024-02-16T14:07:08;12.90;88.70
69595;DHT22;56800;52.142;5.364;2024-02-16T14:09:36;12.90;88.70
69595;DHT22;56800;52.142;5.364;2024-02-16T14:12:03;12.90;88.80
69595;DHT22;56800;52.142;5.364;2024-02-16T14:14:30;12.90;88.70
69595;DHT22;56800;52.142;5.364;2024-02-16T14:17:04;12.90;88.70
69595;DHT22;56800;52.142;5.364;2024-02-16T14:19:31;12.90;88.70
69595;DHT22;56800;52.142;5.364;2024-02-16T14:22:01;12.80;88.50
69595;DHT22;56800;52.142;5.364;2024-02-16T14:24:28;12.80;88.60
69595;DHT22;56800;52.142;5.364;2024-02-16T14:26:55;12.80;88.70
69595;DHT22;56800;52.142;5.364;2024-02-16T14:29:22;12.80;88.80
69595;DHT22;56800;52.142;5.364;2024-02-16T14:31:49;12.80;88.80
69595;DHT22;56800;52.142;5.364;2024-02-16T14:34:16;12.80;88.80
69595;DHT22;56800;52.142;5.364;2024-02-16T14:36:43;12.80;88.70
69595;DHT22;56800;52.142;5.364;2024-02-16T14:39:10;12.70;88.50
69595;DHT22;56800;52.142;5.364;2024-02-16T14:41:38;12.70;89.40
69595;DHT22;56800;52.142;5.364;2024-02-16T14:44:05;12.80;88.80
69595;DHT22;56800;52.142;5.364;2024-02-16T14:46:32;12.80;88.70
69595;DHT22;56800;52.142;5.364;2024-02-16T14:48:59;12.80;88.70
69595;DHT22;56800;52.142;5.364;2024-02-16T14:51:26;12.80;88.70
69595;DHT22;56800;52.142;5.364;2024-02-16T14:53:53;12.70;88.70
69595;DHT22;56800;52.142;5.364;2024-02-16T14:56:20;12.80;88.70
69595;DHT22;56800;52.142;5.364;2024-02-16T14:58:48;12.80;88.70
69595;DHT22;56800;52.142;5.364;2024-02-16T15:01:15;12.80;88.60
69595;DHT22;56800;52.142;5.364;2024-02-16T15:03:42;12.70;88.60
69595;DHT22;56800;52.142;5.364;2024-02-16T15:06:09;12.70;88.70
69595;DHT22;56800;52.142;5.364;2024-02-16T15:08:35;12.70;88.70
69595;DHT22;56800;52.142;5.364;2024-02-16T15:11:02;12.70;88.80
69595;DHT22;56800;52.142;5.364;2024-02-16T15:13:29;12.70;88.80
69595;DHT22;56800;52.142;5.364;2024-02-16T15:15:57;12.70;88.60
69595;DHT22;56800;52.142;5.364;2024-02-16T15:18:25;12.80;88.60
69595;DHT22;56800;52.142;5.364;2024-02-16T15:20:52;12.80;89.40
69595;DHT22;56800;52.142;5.364;2024-02-16T15:23:21;12.70;88.60
69595;DHT22;56800;52.142;5.364;2024-02-16T15:25:48;12.70;88.60
69595;DHT22;56800;52.142;5.364;2024-02-16T15:28:15;12.70;88.70
69595;DHT22;56800;52.142;5.364;2024-02-16T15:30:42;12.70;88.70
69595;DHT22;56800;52.142;5.364;2024-02-16T15:33:09;12.70;88.70
69595;DHT22;56800;52.142;5.364;2024-02-16T15:35:36;12.80;88.70